Time;durP1;ratioP1;P1;durP2;ratioP2;P2;SDS_P1;SDS_P2;PMS_P1;PMS_P2;Temp;Humidity;BMP_temperature;BMP_pressure;BME280_temperature;BME280_humidity;BME280_pressure;Samples;Min_cycle;Max_cycle;Signal;HPM_P1;HPM_P2
2021/08/13 00:02:22;;;;;;;5.97;5.38;;;21.90;60.50;;;;;;5065666;28;20163;-79
2021/08/13 00:04:52;;;;;;;5.60;5.00;;;21.90;60.40;;;;;;5047461;28;20190;-80
2021/08/13 00:07:18;;;;;;;5.40;4.88;;;21.90;60.40;;;;;;5031081;28;20186;-79
2021/08/13 00:09:44;;;;;;;5.82;5.13;;;21.90;60.50;;;;;;5048157;28;20154;-79
2021/08/13 00:12:10;;;;;;;6.05;5.45;;;21.90;60.50;;;;;;5044141;28;20251;-80
2021/08/13 00:14:45;;;;;;;5.72;5.10;;;21.90;60.50;;;;;;5028359;28;20249;-79
2021/08/13 00:17:16;;;;;;;5.90;5.30;;;21.90;60.50;;;;;;5096573;28;20189;-79
2021/08/13 00:19:46;;;;;;;6.22;5.57;;;21.90;60.40;;;;;;5096659;28;20198;-80
2021/08/13 00:22:12;;;;;;;5.38;4.88;;;22.00;60.50;;;;;;5026895;28;20183;-79
2021/08/13 00:24:42;;;;;;;6.78;5.55;;;21.90;60.50;;;;;;5044938;28;20237;-79
2021/08/13 00:27:14;;;;;;;5.72;4.95;;;21.90;60.50;;;;;;5095814;28;20186;-80
2021/08/13 00:29:44;;;;;;;6.32;5.53;;;21.90;60.50;;;;;;5026871;28;20218;-79
2021/08/13 00:32:22;;;;;;;6.20;5.60;;;21.90;60.60;;;;;;5010563;28;20190;-79
2021/08/13 00:34:47;;;;;;;6.32;5.63;;;21.90;60.50;;;;;;5010053;28;20194;-79
2021/08/13 00:37:13;;;;;;;6.45;5.70;;;21.90;60.50;;;;;;5027830;28;20167;-79
2021/08/13 00:39:39;;;;;;;6.22;5.50;;;21.90;60.60;;;;;;5043612;28;20157;-79
2021/08/13 00:42:06;;;;;;;6.55;5.55;;;21.90;60.60;;;;;;5044879;28;20151;-79
2021/08/13 00:44:38;;;;;;;5.90;5.30;;;21.90;60.60;;;;;;5044577;28;20166;-79
2021/08/13 00:47:07;;;;;;;7.03;5.90;;;21.90;60.70;;;;;;5096432;28;20235;-79
2021/08/13 00:49:39;;;;;;;5.82;5.22;;;21.90;60.70;;;;;;5095412;28;20573;-79
2021/08/13 00:52:05;;;;;;;5.97;5.38;;;21.90;60.60;;;;;;5078717;28;20183;-79
2021/08/13 00:54:33;;;;;;;5.90;5.30;;;21.90;60.70;;;;;;5027433;28;20192;-79
2021/08/13 00:57:01;;;;;;;6.03;5.40;;;21.90;60.80;;;;;;5009793;28;20182;-79
2021/08/13 00:59:28;;;;;;;6.50;5.45;;;21.80;60.60;;;;;;5010771;28;20194;-79
2021/08/13 01:01:55;;;;;;;5.95;5.32;;;21.80;60.70;;;;;;5026654;28;20190;-79
2021/08/13 01:04:25;;;;;;;6.57;5.50;;;21.90;60.80;;;;;;5010270;28;20175;-79
2021/08/13 01:06:58;;;;;;;6.35;5.70;;;21.80;60.70;;;;;;5095806;28;20204;-79
2021/08/13 01:09:25;;;;;;;6.60;5.85;;;21.80;60.70;;;;;;5078453;28;20226;-79
2021/08/13 01:12:03;;;;;;;6.25;5.32;;;21.80;60.90;;;;;;5033237;28;20222;-79
2021/08/13 01:14:37;;;;;;;5.82;5.22;;;21.90;61.50;;;;;;5044891;28;20155;-79
2021/08/13 01:17:07;;;;;;;5.88;5.18;;;21.90;60.80;;;;;;5010973;28;20178;-80
2021/08/13 01:19:59;;;;;;;5.88;5.15;;;21.80;60.80;;;;;;5094851;28;20197;-79
2021/08/13 01:22:30;;;;;;;6.47;5.50;;;21.90;60.90;;;;;;5014193;28;20181;-79
2021/08/13 01:24:59;;;;;;;6.50;5.70;;;21.90;60.80;;;;;;5026232;28;20179;-79
2021/08/13 01:27:35;;;;;;;5.75;5.15;;;21.90;60.90;;;;;;5025753;28;20174;-80
2021/08/13 01:30:08;;;;;;;6.68;5.63;;;21.80;60.90;;;;;;5094635;28;20262;-79
2021/08/13 01:32:46;;;;;;;6.50;5.50;;;21.80;60.90;;;;;;5027264;28;20210;-79
2021/08/13 01:35:18;;;;;;;6.35;5.63;;;21.80;60.90;;;;;;5108461;28;20178;-79
2021/08/13 01:37:58;;;;;;;6.13;5.35;;;21.80;60.90;;;;;;5010880;28;20186;-79
2021/08/13 01:40:27;;;;;;;6.30;5.60;;;21.80;60.90;;;;;;5010012;28;20209;-79
2021/08/13 01:42:57;;;;;;;5.90;5.30;;;21.80;60.90;;;;;;5060604;28;20190;-79
2021/08/13 01:45:26;;;;;;;6.30;5.57;;;21.80;61.00;;;;;;5009427;28;20186;-79
2021/08/13 01:47:54;;;;;;;6.10;5.50;;;21.80;61.00;;;;;;4992977;28;20247;-79
2021/08/13 01:50:23;;;;;;;6.60;5.82;;;21.80;61.00;;;;;;5076970;28;20287;-79
2021/08/13 01:52:53;;;;;;;6.10;5.30;;;21.80;61.00;;;;;;5076711;28;20207;-79
2021/08/13 01:55:21;;;;;;;6.40;5.50;;;21.80;61.00;;;;;;5008992;28;20178;-79
2021/08/13 01:57:48;;;;;;;5.75;5.13;;;21.80;61.00;;;;;;5094166;28;20205;-79
2021/08/13 02:00:18;;;;;;;7.10;6.00;;;21.70;60.90;;;;;;5024632;28;20187;-79
2021/08/13 02:02:53;;;;;;;6.25;5.57;;;21.80;61.00;;;;;;5025576;28;20187;-79
2021/08/13 02:05:23;;;;;;;6.03;5.43;;;21.80;61.00;;;;;;5009077;28;20190;-79
2021/08/13 02:07:54;;;;;;;6.07;5.43;;;21.80;61.10;;;;;;5009340;28;20241;-79
2021/08/13 02:10:21;;;;;;;5.90;5.30;;;21.80;61.10;;;;;;5060108;28;20186;-79
2021/08/13 02:12:48;;;;;;;5.63;5.05;;;21.80;61.10;;;;;;5108216;28;20219;-79
2021/08/13 02:15:18;;;;;;;6.35;5.57;;;21.80;61.10;;;;;;5125252;28;20211;-80
2021/08/13 02:17:54;;;;;;;6.60;5.90;;;21.80;61.10;;;;;;5109074;28;20156;-79
2021/08/13 02:20:26;;;;;;;6.78;5.55;;;21.80;61.10;;;;;;5127917;28;20239;-79
2021/08/13 02:22:52;;;;;;;5.85;5.25;;;21.80;61.10;;;;;;5108463;28;20186;-79
2021/08/13 02:25:18;;;;;;;6.68;5.90;;;21.80;61.10;;;;;;5127626;28;20172;-79
2021/08/13 02:27:44;;;;;;;6.72;5.65;;;21.80;61.10;;;;;;5126259;28;20180;-79
2021/08/13 02:30:10;;;;;;;5.95;5.35;;;21.80;61.20;;;;;;5109271;28;20670;-79
2021/08/13 02:32:36;;;;;;;6.45;5.75;;;21.80;61.10;;;;;;5125578;28;20159;-79
2021/08/13 02:35:03;;;;;;;6.20;5.60;;;21.80;61.20;;;;;;5127272;28;20561;-79
2021/08/13 02:37:39;;;;;;;7.20;5.72;;;21.80;61.20;;;;;;5126981;28;20152;-79
2021/08/13 02:40:12;;;;;;;6.70;5.80;;;21.80;61.20;;;;;;5109033;28;20183;-79
2021/08/13 02:42:51;;;;;;;6.47;5.53;;;21.80;61.20;;;;;;5108723;28;20194;-79
2021/08/13 02:45:21;;;;;;;5.95;5.35;;;21.80;61.10;;;;;;5109024;28;20300;-79
2021/08/13 02:47:51;;;;;;;6.13;5.53;;;21.70;61.10;;;;;;5125438;28;20184;-79
2021/08/13 02:50:17;;;;;;;6.32;5.40;;;21.80;61.10;;;;;;5108738;28;20160;-79
2021/08/13 02:52:48;;;;;;;6.65;5.85;;;21.80;61.20;;;;;;5125841;28;20156;-80
2021/08/13 02:55:16;;;;;;;6.82;5.80;;;21.80;61.20;;;;;;5125972;28;20179;-79
2021/08/13 02:57:43;;;;;;;6.68;5.80;;;21.80;61.20;;;;;;5109207;28;20181;-79
2021/08/13 03:00:14;;;;;;;6.95;6.10;;;21.80;61.20;;;;;;5126947;28;20178;-80
2021/08/13 03:02:46;;;;;;;6.90;5.60;;;21.80;61.30;;;;;;5126686;28;20180;-79
2021/08/13 03:05:19;;;;;;;6.97;5.97;;;21.70;61.20;;;;;;5129187;28;20176;-79
2021/08/13 03:07:54;;;;;;;6.57;5.53;;;21.70;61.20;;;;;;5112415;28;20204;-79
2021/08/13 03:10:24;;;;;;;6.45;5.70;;;21.70;61.20;;;;;;5112770;28;20172;-79
2021/08/13 03:12:54;;;;;;;5.95;4.97;;;21.70;61.20;;;;;;5128757;28;20227;-79
2021/08/13 03:15:26;;;;;;;6.65;5.47;;;21.70;61.20;;;;;;5129704;28;20144;-79
2021/08/13 03:17:56;;;;;;;6.15;5.40;;;21.70;61.30;;;;;;5128522;28;20687;-79
2021/08/13 03:20:27;;;;;;;6.25;5.47;;;21.70;61.30;;;;;;5128734;28;20176;-79
2021/08/13 03:22:54;;;;;;;6.28;5.60;;;21.70;61.30;;;;;;5095033;28;20191;-79
2021/08/13 03:25:22;;;;;;;6.30;5.70;;;21.70;61.30;;;;;;5111667;28;20175;-79
2021/08/13 03:27:49;;;;;;;6.57;5.78;;;21.70;61.30;;;;;;5094280;28;20211;-79
2021/08/13 03:30:16;;;;;;;6.45;5.68;;;21.70;61.30;;;;;;5144917;27;20192;-78
2021/08/13 03:32:46;;;;;;;5.97;5.38;;;21.70;61.40;;;;;;5094208;28;20251;-78
2021/08/13 03:35:16;;;;;;;5.85;5.25;;;21.70;61.50;;;;;;5128103;28;20172;-79
2021/08/13 03:37:43;;;;;;;5.95;5.32;;;21.70;61.40;;;;;;5111341;28;20180;-79
2021/08/13 03:40:14;;;;;;;6.18;5.32;;;21.70;61.40;;;;;;5094843;28;20179;-79
2021/08/13 03:42:40;;;;;;;6.22;5.45;;;21.70;61.40;;;;;;5093978;28;20180;-78
2021/08/13 03:45:07;;;;;;;6.65;5.43;;;21.70;61.40;;;;;;5129280;28;20251;-79
2021/08/13 03:47:44;;;;;;;6.10;5.50;;;21.60;61.40;;;;;;5095495;28;20605;-78
2021/08/13 03:50:16;;;;;;;6.18;5.50;;;21.70;61.50;;;;;;5092571;28;20216;-81
2021/08/13 03:52:47;;;;;;;6.47;5.18;;;21.70;61.40;;;;;;5128291;28;20187;-80
2021/08/13 03:55:18;;;;;;;5.97;5.38;;;21.70;61.40;;;;;;5128791;28;20176;-81
2021/08/13 03:57:47;;;;;;;5.97;5.28;;;21.70;61.50;;;;;;5128099;28;20194;-80
2021/08/13 04:00:17;;;;;;;6.38;5.78;;;21.70;61.40;;;;;;5126571;28;20184;-83
2021/08/13 04:02:46;;;;;;;6.05;5.45;;;21.70;61.40;;;;;;5124411;28;20207;-83
2021/08/13 04:05:15;;;;;;;6.70;5.72;;;21.70;61.50;;;;;;5106738;28;20195;-82
2021/08/13 04:07:44;;;;;;;6.18;5.43;;;21.70;61.60;;;;;;5124101;28;20192;-84
2021/08/13 04:10:12;;;;;;;6.03;5.43;;;21.70;61.50;;;;;;5106468;28;20172;-84
2021/08/13 04:12:41;;;;;;;7.43;5.80;;;21.70;61.40;;;;;;5106080;28;20381;-83
2021/08/13 04:15:07;;;;;;;6.20;5.47;;;21.70;61.60;;;;;;5104679;28;20187;-84
2021/08/13 04:17:33;;;;;;;6.05;5.45;;;21.70;61.50;;;;;;5122720;28;20205;-84
2021/08/13 04:19:59;;;;;;;6.28;5.68;;;21.70;61.40;;;;;;5106118;28;20164;-84
2021/08/13 04:22:24;;;;;;;5.65;5.05;;;21.80;62.10;;;;;;5123204;28;20167;-83
2021/08/13 04:24:53;;;;;;;6.22;5.60;;;21.80;62.10;;;;;;5106184;28;20253;-84
2021/08/13 04:27:20;;;;;;;5.95;5.35;;;21.80;61.80;;;;;;5089556;28;20191;-83
2021/08/13 04:29:51;;;;;;;5.90;5.30;;;21.80;61.90;;;;;;5123370;28;20210;-84
2021/08/13 04:32:17;;;;;;;5.53;5.00;;;21.80;61.70;;;;;;5088746;28;20212;-83
2021/08/13 04:34:46;;;;;;;5.25;4.75;;;21.80;61.80;;;;;;5106304;28;20163;-84
2021/08/13 04:37:14;;;;;;;5.95;5.05;;;21.90;61.80;;;;;;5104655;28;20179;-84
2021/08/13 04:39:44;;;;;;;5.75;5.10;;;22.00;61.20;;;;;;5122362;28;20184;-84
2021/08/13 04:42:10;;;;;;;6.22;5.63;;;22.00;61.40;;;;;;5122027;28;20195;-85
2021/08/13 04:44:42;;;;;;;6.13;5.40;;;21.90;61.20;;;;;;5106644;28;20160;-83
2021/08/13 04:47:08;;;;;;;5.93;5.32;;;21.90;61.40;;;;;;5121802;28;20180;-83
2021/08/13 04:49:36;;;;;;;5.97;5.20;;;21.90;61.60;;;;;;5105844;28;20715;-83
2021/08/13 04:52:06;;;;;;;5.82;5.22;;;22.00;61.20;;;;;;5087305;28;20188;-84
2021/08/13 04:54:33;;;;;;;6.13;5.45;;;22.10;61.00;;;;;;5121737;28;20179;-85
2021/08/13 04:57:03;;;;;;;6.20;5.40;;;22.10;60.90;;;;;;5104294;28;20180;-84
2021/08/13 04:59:30;;;;;;;5.80;5.20;;;22.00;60.70;;;;;;5104350;28;20184;-83
2021/08/13 05:02:00;;;;;;;5.97;5.38;;;22.00;61.00;;;;;;5121497;28;20207;-85
2021/08/13 05:04:27;;;;;;;5.80;5.15;;;22.00;61.00;;;;;;5103781;28;20191;-84
2021/08/13 05:06:54;;;;;;;6.00;5.40;;;22.10;60.80;;;;;;5086507;28;20211;-83
2021/08/13 05:09:21;;;;;;;6.13;5.53;;;22.00;60.90;;;;;;5103399;28;20245;-84
2021/08/13 05:11:47;;;;;;;6.25;5.50;;;22.00;61.20;;;;;;5119778;28;20227;-84
2021/08/13 05:14:15;;;;;;;5.93;5.32;;;22.00;60.80;;;;;;5103633;28;20194;-84
2021/08/13 05:16:44;;;;;;;5.80;5.20;;;22.00;61.00;;;;;;5120508;28;20184;-86
2021/08/13 05:19:11;;;;;;;5.82;5.10;;;22.10;61.00;;;;;;5121233;28;20258;-83
2021/08/13 05:21:38;;;;;;;5.63;5.00;;;22.00;61.20;;;;;;5103948;28;20203;-84
2021/08/13 05:24:05;;;;;;;5.70;5.10;;;22.10;60.90;;;;;;5087438;28;20156;-84
2021/08/13 05:26:36;;;;;;;5.30;4.80;;;22.10;61.60;;;;;;5103391;28;20199;-84
2021/08/13 05:29:03;;;;;;;6.13;5.50;;;22.20;61.70;;;;;;5103137;28;20208;-84
2021/08/13 05:31:33;;;;;;;5.40;4.90;;;22.20;60.80;;;;;;5119652;28;20666;-84
2021/08/13 05:34:00;;;;;;;6.45;5.55;;;22.20;60.80;;;;;;5086195;28;20593;-84
2021/08/13 05:36:27;;;;;;;6.50;5.65;;;22.10;60.70;;;;;;5084742;28;20209;-84
2021/08/13 05:38:54;;;;;;;6.30;5.40;;;22.20;60.90;;;;;;5101530;28;20669;-85
2021/08/13 05:41:25;;;;;;;5.32;4.72;;;22.20;60.60;;;;;;5101428;28;20205;-84
2021/08/13 05:43:52;;;;;;;6.05;5.07;;;22.10;60.70;;;;;;5084467;28;20179;-84
2021/08/13 05:46:19;;;;;;;5.88;5.22;;;22.10;60.80;;;;;;5102719;28;20176;-83
2021/08/13 05:48:45;;;;;;;5.53;4.93;;;22.10;60.90;;;;;;5120703;28;20654;-83
2021/08/13 05:51:11;;;;;;;6.20;5.60;;;22.20;60.90;;;;;;5086021;28;20152;-83
2021/08/13 05:53:37;;;;;;;5.97;5.32;;;22.10;60.90;;;;;;5119648;28;20148;-84
2021/08/13 05:56:07;;;;;;;6.25;5.43;;;22.10;60.90;;;;;;5119523;28;20181;-84
2021/08/13 05:58:33;;;;;;;5.53;5.03;;;22.10;60.90;;;;;;5084209;28;20183;-85
2021/08/13 06:01:00;;;;;;;5.82;5.22;;;22.10;60.90;;;;;;5119803;28;20148;-83
2021/08/13 06:03:26;;;;;;;5.70;5.10;;;22.10;60.90;;;;;;5119881;28;20599;-83
2021/08/13 06:05:54;;;;;;;5.88;5.28;;;22.00;61.10;;;;;;5120039;28;20148;-84
2021/08/13 06:08:21;;;;;;;5.78;5.18;;;22.00;61.20;;;;;;5119520;28;20188;-84
2021/08/13 06:10:46;;;;;;;6.10;5.47;;;22.10;61.40;;;;;;5084429;28;20565;-84
2021/08/13 06:13:14;;;;;;;5.30;4.80;;;22.00;61.10;;;;;;5057305;28;20159;-84
2021/08/13 06:15:44;;;;;;;5.88;5.28;;;22.10;61.40;;;;;;5039128;28;20146;-84
2021/08/13 06:18:11;;;;;;;5.63;5.00;;;22.10;61.90;;;;;;5107581;28;20186;-84
2021/08/13 06:20:37;;;;;;;5.47;4.95;;;22.10;61.90;;;;;;5038628;28;20158;-85
2021/08/13 06:23:07;;;;;;;5.75;5.15;;;22.00;61.00;;;;;;5019300;28;20162;-85
2021/08/13 06:25:37;;;;;;;6.88;5.30;;;22.10;61.60;;;;;;5104835;28;20185;-83
2021/08/13 06:28:08;;;;;;;5.50;4.93;;;22.10;61.70;;;;;;5002310;28;20625;-84
2021/08/13 06:30:38;;;;;;;6.35;5.65;;;22.20;61.40;;;;;;5019161;28;20185;-85
2021/08/13 06:33:04;;;;;;;5.75;5.25;;;22.20;61.20;;;;;;5018969;28;20181;-85
2021/08/13 06:35:34;;;;;;;6.05;5.20;;;22.20;61.60;;;;;;5018724;28;20162;-85
2021/08/13 06:38:00;;;;;;;6.28;5.32;;;22.10;61.50;;;;;;5000838;28;20170;-84
2021/08/13 06:40:31;;;;;;;6.82;5.15;;;22.20;61.70;;;;;;5035607;28;20161;-86
2021/08/13 06:42:57;;;;;;;5.53;5.03;;;22.10;61.00;;;;;;5086374;28;20182;-85
2021/08/13 06:45:23;;;;;;;5.88;5.28;;;22.30;60.90;;;;;;5052986;28;20164;-83
2021/08/13 06:47:49;;;;;;;6.55;5.20;;;22.30;61.50;;;;;;5033543;28;20146;-82
2021/08/13 06:50:17;;;;;;;5.80;5.18;;;22.30;61.30;;;;;;5032249;28;20150;-84
2021/08/13 06:52:45;;;;;;;5.28;4.78;;;22.30;61.10;;;;;;5015011;28;20178;-84
2021/08/13 06:55:13;;;;;;;5.55;4.95;;;22.40;61.30;;;;;;5083777;28;20378;-88
2021/08/13 06:57:40;;;;;;;5.85;5.25;;;22.40;61.00;;;;;;4998531;28;20182;-84
2021/08/13 07:00:09;;;;;;;5.90;5.30;;;22.30;61.40;;;;;;5084276;28;20174;-81
2021/08/13 07:02:37;;;;;;;5.53;4.95;;;22.40;60.90;;;;;;4998459;28;20185;-82
2021/08/13 07:05:04;;;;;;;5.97;5.38;;;22.50;61.00;;;;;;5083238;28;20517;-82
2021/08/13 07:07:32;;;;;;;5.75;5.15;;;22.40;61.00;;;;;;5066466;28;20189;-81
2021/08/13 07:10:03;;;;;;;5.70;4.97;;;22.30;61.40;;;;;;5083343;28;20218;-82
2021/08/13 07:12:31;;;;;;;6.22;5.45;;;22.40;61.00;;;;;;5078322;28;20226;-82
2021/08/13 07:14:57;;;;;;;6.18;5.47;;;22.40;60.90;;;;;;5079937;28;20183;-81
2021/08/13 07:17:24;;;;;;;5.85;5.25;;;22.40;61.20;;;;;;5011971;28;20586;-81
2021/08/13 07:19:51;;;;;;;5.90;5.40;;;22.40;61.20;;;;;;5079483;28;20183;-81
2021/08/13 07:22:18;;;;;;;5.68;4.93;;;22.40;61.70;;;;;;5010947;28;20187;-82
2021/08/13 07:24:46;;;;;;;6.43;5.43;;;22.30;61.00;;;;;;5080039;28;20182;-81
2021/08/13 07:27:13;;;;;;;6.15;5.55;;;22.30;61.70;;;;;;5062918;28;20179;-81
2021/08/13 07:29:40;;;;;;;6.82;5.20;;;22.40;62.00;;;;;;5080038;28;20218;-81
2021/08/13 07:32:07;;;;;;;5.90;5.30;;;22.40;61.20;;;;;;5097364;28;20630;-81
2021/08/13 07:34:35;;;;;;;5.85;5.22;;;22.40;61.50;;;;;;5096802;28;20178;-80
2021/08/13 07:37:02;;;;;;;7.03;5.18;;;22.40;61.40;;;;;;5079710;28;20244;-82
2021/08/13 07:39:28;;;;;;;6.07;5.35;;;22.30;61.60;;;;;;5096394;28;20208;-82
2021/08/13 07:41:55;;;;;;;5.43;4.90;;;22.40;62.30;;;;;;5079751;28;20198;-82
2021/08/13 07:44:21;;;;;;;5.78;5.28;;;22.50;61.60;;;;;;5096858;28;20587;-82
2021/08/13 07:46:49;;;;;;;5.53;5.03;;;22.40;61.00;;;;;;5012436;28;20245;-82
2021/08/13 07:49:16;;;;;;;6.65;5.45;;;22.40;61.50;;;;;;5099324;28;20284;-82
2021/08/13 07:51:44;;;;;;;5.68;5.07;;;22.30;61.60;;;;;;5014099;28;20179;-82
2021/08/13 07:54:11;;;;;;;6.47;5.05;;;22.30;61.30;;;;;;5014485;28;20688;-82
2021/08/13 07:56:39;;;;;;;5.80;5.00;;;22.40;62.10;;;;;;5101190;28;20214;-81
2021/08/13 07:59:04;;;;;;;6.03;5.20;;;22.50;61.30;;;;;;5014979;28;20191;-82
2021/08/13 08:01:30;;;;;;;5.88;5.28;;;22.40;61.40;;;;;;5032169;28;20169;-82
2021/08/13 08:03:55;;;;;;;6.95;5.22;;;22.40;61.70;;;;;;5031314;28;20170;-81
2021/08/13 08:06:21;;;;;;;6.05;5.38;;;22.40;62.00;;;;;;5032008;28;20184;-82
2021/08/13 08:08:48;;;;;;;6.22;5.25;;;22.40;61.50;;;;;;4998222;28;20284;-82
2021/08/13 08:11:14;;;;;;;6.75;5.20;;;22.40;62.10;;;;;;5013713;28;20218;-81
2021/08/13 08:13:40;;;;;;;6.15;5.18;;;22.40;62.00;;;;;;5031143;28;20207;-82
2021/08/13 08:16:06;;;;;;;5.60;5.00;;;22.40;62.10;;;;;;5014725;28;20171;-82
2021/08/13 08:18:33;;;;;;;5.90;5.18;;;22.40;62.00;;;;;;5031912;28;20162;-82
2021/08/13 08:21:01;;;;;;;5.70;5.10;;;22.40;61.50;;;;;;5032286;28;20171;-83
2021/08/13 08:23:29;;;;;;;5.72;5.13;;;22.40;62.00;;;;;;5100662;28;20272;-81
2021/08/13 08:25:57;;;;;;;8.50;5.15;;;22.40;62.10;;;;;;5083358;28;20564;-82
2021/08/13 08:28:24;;;;;;;6.80;5.40;;;22.50;61.60;;;;;;5082505;28;20217;-82
2021/08/13 08:30:52;;;;;;;5.28;4.78;;;22.40;62.10;;;;;;5082630;28;20222;-81
2021/08/13 08:33:19;;;;;;;5.68;5.05;;;22.40;61.70;;;;;;5099355;28;20190;-82
2021/08/13 08:35:48;;;;;;;6.05;5.38;;;22.40;62.20;;;;;;5014206;28;20269;-81
2021/08/13 08:38:15;;;;;;;5.90;5.25;;;22.50;62.10;;;;;;5081802;28;20281;-81
2021/08/13 08:40:43;;;;;;;6.95;5.13;;;22.50;62.00;;;;;;5065430;28;20183;-82
2021/08/13 08:43:10;;;;;;;5.85;5.25;;;22.50;61.70;;;;;;5099106;28;20286;-82
2021/08/13 08:45:38;;;;;;;6.00;5.40;;;22.50;62.10;;;;;;5099325;28;20227;-82
2021/08/13 08:48:07;;;;;;;7.82;5.30;;;22.60;62.00;;;;;;5082221;28;20581;-81
2021/08/13 08:50:35;;;;;;;5.72;4.78;;;22.60;61.90;;;;;;5098898;28;20183;-82
2021/08/13 08:53:05;;;;;;;5.90;5.00;;;22.60;61.40;;;;;;5082137;28;20273;-81
2021/08/13 08:55:33;;;;;;;6.03;4.90;;;22.70;61.50;;;;;;5098091;28;20328;-83
2021/08/13 08:58:00;;;;;;;6.85;5.57;;;22.60;61.40;;;;;;5099068;28;20253;-81
2021/08/13 09:00:27;;;;;;;6.22;5.30;;;22.70;61.60;;;;;;5098702;28;20182;-82
2021/08/13 09:02:54;;;;;;;8.00;5.28;;;22.70;61.50;;;;;;5100088;28;20653;-82
2021/08/13 09:05:21;;;;;;;5.88;5.28;;;22.70;61.60;;;;;;5013961;28;20159;-82
2021/08/13 09:07:48;;;;;;;5.97;4.95;;;22.80;61.70;;;;;;5082480;28;20204;-82
2021/08/13 09:10:15;;;;;;;5.90;5.30;;;22.80;61.10;;;;;;5100331;28;20214;-82
2021/08/13 09:12:43;;;;;;;8.30;5.50;;;22.80;60.90;;;;;;5098990;28;20218;-82
2021/08/13 09:15:26;;;;;;;6.85;4.97;;;22.80;60.90;;;;;;5082494;28;20582;-83
2021/08/13 09:18:13;;;;;;;7.38;5.25;;;22.80;61.10;;;;;;5030471;28;20256;-82
2021/08/13 09:20:54;;;;;;;6.00;4.95;;;22.80;60.90;;;;;;5014607;28;20214;-82
2021/08/13 09:23:40;;;;;;;7.43;4.93;;;22.80;61.00;;;;;;5016754;28;20190;-82
2021/08/13 09:26:09;;;;;;;6.88;5.10;;;22.90;61.00;;;;;;5030095;28;20159;-83
2021/08/13 09:28:43;;;;;;;7.97;5.20;;;22.80;60.70;;;;;;5031400;28;20223;-83
2021/08/13 09:31:18;;;;;;;5.65;4.93;;;22.80;61.10;;;;;;4997313;28;20433;-83
2021/08/13 09:33:47;;;;;;;5.82;4.90;;;22.70;61.30;;;;;;5030066;28;20170;-83
2021/08/13 09:36:14;;;;;;;5.13;4.63;;;22.80;61.10;;;;;;5030074;28;20162;-83
2021/08/13 09:38:40;;;;;;;5.70;5.00;;;22.80;61.10;;;;;;5014298;28;20247;-82
2021/08/13 09:41:08;;;;;;;8.07;4.93;;;22.70;61.30;;;;;;5030767;28;20179;-83
2021/08/13 09:43:36;;;;;;;6.45;5.10;;;22.70;61.20;;;;;;5030419;28;20182;-85
2021/08/13 09:46:07;;;;;;;7.75;5.40;;;22.80;61.20;;;;;;5030374;28;20637;-82
2021/08/13 09:48:33;;;;;;;5.60;4.93;;;22.80;61.10;;;;;;5031477;28;20191;-82
2021/08/13 09:50:58;;;;;;;7.22;5.00;;;22.80;61.10;;;;;;5030026;28;20551;-82
2021/08/13 09:53:24;;;;;;;10.07;5.53;;;22.70;61.10;;;;;;5013535;28;20173;-82
2021/08/13 09:55:51;;;;;;;8.32;4.97;;;22.80;61.20;;;;;;5029354;28;20163;-81
2021/08/13 09:58:26;;;;;;;6.30;4.88;;;22.80;61.20;;;;;;5029808;28;20501;-82
2021/08/13 10:00:54;;;;;;;6.95;5.13;;;22.80;60.90;;;;;;5030591;28;20161;-82
2021/08/13 10:03:20;;;;;;;7.43;5.30;;;22.70;61.00;;;;;;5032287;28;20174;-82
2021/08/13 10:06:00;;;;;;;8.60;5.43;;;22.80;61.10;;;;;;5030566;28;20503;-81
2021/08/13 10:08:38;;;;;;;9.23;5.47;;;22.70;61.20;;;;;;5031375;28;20194;-80
2021/08/13 10:11:11;;;;;;;7.63;5.30;;;22.70;61.40;;;;;;5032404;28;20199;-81
2021/08/13 10:13:41;;;;;;;6.45;4.95;;;22.70;61.40;;;;;;5033089;28;20244;-81
2021/08/13 10:16:07;;;;;;;8.98;4.90;;;22.80;61.20;;;;;;5033221;28;20218;-81
2021/08/13 10:18:36;;;;;;;6.95;5.32;;;22.80;61.10;;;;;;5018738;28;20261;-81
2021/08/13 10:21:01;;;;;;;7.32;5.57;;;22.70;61.50;;;;;;5051759;28;20161;-81
2021/08/13 10:23:28;;;;;;;8.65;5.10;;;22.80;61.60;;;;;;5034073;28;20162;-80
2021/08/13 10:25:55;;;;;;;5.60;5.00;;;22.80;61.40;;;;;;5032554;28;20606;-81
2021/08/13 10:28:22;;;;;;;7.28;5.97;;;22.90;60.90;;;;;;5015929;28;20683;-81
2021/08/13 10:30:49;;;;;;;7.00;5.40;;;23.00;60.60;;;;;;5050601;28;20154;-82
2021/08/13 10:33:15;;;;;;;6.50;5.30;;;23.00;60.50;;;;;;5051667;28;20165;-82
2021/08/13 10:35:48;;;;;;;7.00;5.20;;;22.90;60.70;;;;;;5032803;28;20174;-81
2021/08/13 10:38:14;;;;;;;6.68;5.00;;;23.00;60.90;;;;;;5050708;28;20253;-82
2021/08/13 10:40:40;;;;;;;5.75;5.15;;;22.90;61.00;;;;;;5032514;28;20166;-81
2021/08/13 10:43:06;;;;;;;6.72;5.40;;;22.90;61.00;;;;;;5032677;28;20158;-81
2021/08/13 10:45:34;;;;;;;8.20;5.40;;;23.00;60.70;;;;;;5050085;28;20497;-81
2021/08/13 10:48:05;;;;;;;6.70;5.68;;;22.90;60.80;;;;;;5049884;28;20183;-81
2021/08/13 10:50:31;;;;;;;6.72;5.38;;;22.80;61.20;;;;;;5032677;28;20662;-81
2021/08/13 10:52:57;;;;;;;6.63;5.28;;;22.80;61.30;;;;;;5050065;28;20166;-81
2021/08/13 10:55:42;;;;;;;7.32;5.63;;;22.80;61.40;;;;;;5050006;28;20534;-81
2021/08/13 10:58:09;;;;;;;7.75;5.50;;;22.80;61.40;;;;;;5050048;28;20166;-81
2021/08/13 11:01:02;;;;;;;7.05;6.00;;;22.90;61.10;;;;;;5049826;28;20233;-81
2021/08/13 11:03:29;;;;;;;11.13;5.88;;;22.90;61.10;;;;;;5050117;28;20177;-81
2021/08/13 11:05:56;;;;;;;10.77;5.82;;;22.90;61.10;;;;;;5032512;28;20245;-81
2021/08/13 11:08:23;;;;;;;17.05;6.18;;;23.00;61.10;;;;;;5032333;28;20243;-81
2021/08/13 11:10:56;;;;;;;8.15;5.65;;;22.90;61.90;;;;;;5049673;28;20197;-80
2021/08/13 11:13:22;;;;;;;10.13;5.88;;;23.00;61.10;;;;;;5032633;28;20158;-81
2021/08/13 11:15:48;;;;;;;16.02;5.82;;;23.00;61.10;;;;;;5031688;28;20162;-81
2021/08/13 11:18:34;;;;;;;23.02;6.88;;;22.90;61.10;;;;;;5049779;28;20194;-81
2021/08/13 11:21:01;;;;;;;18.80;6.53;;;22.90;61.20;;;;;;5050215;28;20170;-80
2021/08/13 11:23:27;;;;;;;21.90;6.32;;;23.00;61.20;;;;;;5051074;28;20146;-81
2021/08/13 11:25:54;;;;;;;16.58;6.22;;;22.90;61.20;;;;;;5035884;28;20147;-80
2021/08/13 11:28:21;;;;;;;17.05;6.25;;;22.90;61.40;;;;;;5035452;28;20193;-81
2021/08/13 11:30:47;;;;;;;8.70;6.13;;;22.90;61.20;;;;;;5018629;28;20163;-81
2021/08/13 11:33:36;;;;;;;15.45;6.38;;;22.90;61.50;;;;;;5053043;28;20171;-80
2021/08/13 11:36:02;;;;;;;14.93;5.55;;;23.00;61.20;;;;;;5035133;28;20270;-80
2021/08/13 11:38:58;;;;;;;14.55;6.10;;;22.90;61.00;;;;;;5052923;28;20155;-80
2021/08/13 11:41:24;;;;;;;19.40;5.85;;;23.00;61.10;;;;;;5035332;28;20162;-80
2021/08/13 11:43:59;;;;;;;13.52;5.72;;;22.90;61.20;;;;;;5053054;28;20151;-80
2021/08/13 11:46:32;;;;;;;17.02;6.70;;;22.90;61.40;;;;;;5053179;28;20166;-80
2021/08/13 11:49:00;;;;;;;17.45;6.60;;;22.90;61.50;;;;;;5035534;28;20197;-81
2021/08/13 11:51:26;;;;;;;16.33;6.60;;;22.90;61.50;;;;;;5035256;28;20158;-80
2021/08/13 11:53:53;;;;;;;23.75;6.20;;;22.90;61.40;;;;;;5035112;28;20207;-81
2021/08/13 11:56:27;;;;;;;13.30;6.55;;;22.90;61.40;;;;;;5052588;27;20198;-81
2021/08/13 11:59:00;;;;;;;12.50;6.50;;;22.90;61.40;;;;;;5034587;28;20675;-81
2021/08/13 12:01:26;;;;;;;15.57;5.97;;;22.90;61.60;;;;;;5052565;28;20613;-81
2021/08/13 12:03:52;;;;;;;16.80;5.90;;;23.00;61.50;;;;;;5052334;28;20207;-81
2021/08/13 12:06:18;;;;;;;14.20;6.15;;;22.90;61.50;;;;;;5052357;28;20561;-81
2021/08/13 12:08:45;;;;;;;21.20;6.00;;;23.00;61.70;;;;;;5034511;28;20182;-81
2021/08/13 12:11:11;;;;;;;16.60;6.13;;;23.00;61.40;;;;;;5017589;28;20274;-80
2021/08/13 12:13:39;;;;;;;16.77;7.03;;;23.00;61.90;;;;;;5034504;28;20162;-80
2021/08/13 12:16:07;;;;;;;15.23;6.75;;;23.00;61.90;;;;;;5017259;28;20186;-80
2021/08/13 12:18:35;;;;;;;17.58;6.72;;;23.10;61.60;;;;;;5103506;28;20264;-80
2021/08/13 12:21:10;;;;;;;16.42;6.38;;;23.10;61.50;;;;;;5085881;28;20186;-80
2021/08/13 12:23:37;;;;;;;11.38;6.57;;;23.20;61.50;;;;;;5103131;28;20174;-79
2021/08/13 12:26:05;;;;;;;14.68;6.22;;;23.30;61.50;;;;;;5102989;28;20182;-81
2021/08/13 12:28:33;;;;;;;16.42;6.78;;;23.20;61.20;;;;;;5102999;28;20214;-80
2021/08/13 12:31:13;;;;;;;13.15;6.40;;;23.20;61.40;;;;;;5102600;28;20186;-81
2021/08/13 12:33:40;;;;;;;15.85;6.57;;;23.10;61.60;;;;;;5051812;28;20155;-81
2021/08/13 12:36:22;;;;;;;15.95;6.70;;;23.10;61.60;;;;;;5101921;28;20189;-81
2021/08/13 12:38:56;;;;;;;13.25;6.82;;;23.20;61.50;;;;;;5086710;28;20190;-81
2021/08/13 12:41:23;;;;;;;11.18;6.25;;;23.20;61.60;;;;;;5068422;28;20182;-81
2021/08/13 12:43:50;;;;;;;12.20;6.63;;;23.20;61.30;;;;;;5016715;28;20304;-80
2021/08/13 12:46:17;;;;;;;12.38;6.88;;;23.30;61.90;;;;;;5102714;28;20250;-81
2021/08/13 12:48:44;;;;;;;13.00;6.82;;;23.30;60.90;;;;;;5068481;28;20672;-80
2021/08/13 12:51:24;;;;;;;11.73;6.25;;;23.40;60.90;;;;;;5102797;28;20656;-81
2021/08/13 12:53:50;;;;;;;14.50;6.53;;;23.30;61.20;;;;;;5051729;28;20165;-81
2021/08/13 12:56:18;;;;;;;9.60;6.53;;;23.20;61.40;;;;;;5033357;28;20229;-80